Batchtown, IL (62006)

7:51 PM CDT on March 29, 2017 (GMT -0500)
MD6306 | | Change Station

Elev 587 ft 39.04 °N, 90.67 °W | Updated 24 minutes ago

Overcast
Overcast
62.0 °F
Feels Like 62.0 °F
N
5.0
Wind Variable Wind from ESE
Gusts 13.0 mph

Today
High -- | Low -- °F
--% Chance of Precip.
Yesterday
High -- | Low -- °F
Precip. -- in
Pressure 29.81 in
Visibility 8.0 miles
Clouds Scattered Clouds 9500 ft
Mostly Cloudy 12000 ft
Dew Point 56 °F
Humidity 82%
Rainfall 0.04 in
Snow Depth Not available.
6:51 AM 7:23 PM
Waxing Crescent, 5% visible
METAR KSET 292354Z AUTO 09010KT 8SM SCT095 BKN120 16/13 A2981 RMK AO2 SLP093 T01610133 10172 20122 56018
Pressure 29.81 in
Visibility 8.0 miles
Clouds Scattered Clouds 9500 ft
Mostly Cloudy 12000 ft
Dew Point 56 °F
Humidity 82%
Rainfall 0.04 in
Snow Depth Not available.
6:51 AM 7:23 PM
Waxing Crescent, 5% visible
METAR KSET 292354Z AUTO 09010KT 8SM SCT095 BKN120 16/13 A2981 RMK AO2 SLP093 T01610133 10172 20122 56018

Get Severe Weather Alerts

Thanks for signing up!

Be on the lookout for a verification email in your inbox.

You'll start receiving the daily forecast at 8 AM.

×

10-Day Weather Forecast

Almanac

Astronomy

Mar. 29, 2017 Rise Set
Actual Time
Civil Twilight
Nautical Twilight
Astronomical Twilight
Moon
Length of Visible Light
Length of Day
Tomorrow will be .
, % of the Moon is Illuminated

Today's Extremes

State Highs State Lows

Community

WunderPhotos

Upload Photos

1,962,540 photos uploaded!

WunderBlog® & News

Nearby

Air Quality

  Air Quality AQ Index Pollutant
Not available.

Snow Depth

Station Depth Elevation

Earthquake Activity

City Distance Mag. Time & Date
Minimum magnitude displayed is 2.5.

Earthquake Activity

City Distance Mag. Time & Date
Minimum magnitude displayed is 2.5.

Coastal Water Temperatures

Place Temperature

Stations

Nearby Weather Stations

Station Location Temp. Windchill Dew Point Humidity Wind Precip. Elev Updated Type
                   

Watches & Warnings

There are currently no watches in effect.